createdAt,value
2018-06-16T00:01:06.677Z,18.83
2018-06-16T00:03:36.263Z,18.56
2018-06-16T00:06:05.764Z,18.62
2018-06-16T00:08:35.282Z,18.89
2018-06-16T00:11:11.296Z,18.88
2018-06-16T00:13:40.787Z,18.73
2018-06-16T00:16:10.304Z,18.82
2018-06-16T00:18:39.938Z,18.62
2018-06-16T00:21:09.554Z,18.62
2018-06-16T00:23:38.974Z,18.65
2018-06-16T00:26:08.507Z,18.68
2018-06-16T00:28:37.974Z,18.51
2018-06-16T00:31:07.437Z,18.59
2018-06-16T00:33:36.870Z,18.60
2018-06-16T00:36:06.413Z,18.57
2018-06-16T00:38:35.897Z,18.42
2018-06-16T00:41:05.325Z,18.46
2018-06-16T00:43:34.806Z,18.35
2018-06-16T00:46:04.374Z,18.46
2018-06-16T00:48:33.866Z,18.31
2018-06-16T00:51:03.275Z,18.35
2018-06-16T00:53:32.768Z,18.38
2018-06-16T00:56:02.207Z,18.32
2018-06-16T00:58:31.809Z,18.23
2018-06-16T01:01:01.259Z,18.22
2018-06-16T01:03:30.775Z,18.31
2018-06-16T01:06:00.326Z,18.38
2018-06-16T01:08:29.765Z,18.32
2018-06-16T01:10:59.214Z,18.31
2018-06-16T01:13:28.732Z,18.44
2018-06-16T01:15:58.158Z,18.33
2018-06-16T01:18:27.716Z,18.31
2018-06-16T01:20:57.169Z,18.44
2018-06-16T01:23:26.619Z,18.38
2018-06-16T01:25:56.092Z,18.36
2018-06-16T01:28:25.513Z,18.29
2018-06-16T01:30:55.049Z,18.35
2018-06-16T01:33:24.543Z,18.38
2018-06-16T01:35:53.977Z,18.59
2018-06-16T01:38:23.435Z,18.56
2018-06-16T01:40:53.026Z,18.64
2018-06-16T01:43:22.731Z,18.61
2018-06-16T01:45:52.176Z,18.67
2018-06-16T01:48:21.675Z,18.60
2018-06-16T01:50:51.265Z,18.46
2018-06-16T01:53:20.702Z,18.62
2018-06-16T01:55:50.120Z,18.66
2018-06-16T01:58:19.600Z,18.70
2018-06-16T02:00:49.221Z,18.53
2018-06-16T02:03:18.688Z,18.52
2018-06-16T02:05:48.128Z,18.44
2018-06-16T02:08:17.556Z,18.42
2018-06-16T02:10:47.041Z,18.53
2018-06-16T02:13:16.467Z,18.45
2018-06-16T02:15:45.940Z,18.34
2018-06-16T02:18:15.460Z,18.31
2018-06-16T02:20:44.870Z,18.27
2018-06-16T02:23:14.368Z,18.13
2018-06-16T02:25:43.840Z,18.12
2018-06-16T02:28:13.432Z,18.25
2018-06-16T02:30:42.876Z,18.22
2018-06-16T02:33:13.381Z,18.25
2018-06-16T02:35:42.868Z,18.20
2018-06-16T02:38:12.294Z,18.19
2018-06-16T02:40:41.720Z,18.39
2018-06-16T02:43:11.301Z,18.22
2018-06-16T02:45:40.863Z,18.17
2018-06-16T02:48:10.365Z,18.19
2018-06-16T02:50:39.811Z,18.10
2018-06-16T02:53:09.253Z,18.32
2018-06-16T02:55:38.774Z,18.30
2018-06-16T02:58:08.239Z,18.37
2018-06-16T03:00:37.886Z,18.45
2018-06-16T03:03:07.395Z,18.46
2018-06-16T03:05:37.054Z,18.59
2018-06-16T03:08:06.480Z,18.57
2018-06-16T03:10:35.898Z,18.62
2018-06-16T03:13:05.418Z,18.60
2018-06-16T03:15:35.028Z,18.62
2018-06-16T03:18:04.451Z,18.55
2018-06-16T03:20:33.894Z,18.55
2018-06-16T03:23:03.342Z,18.62
2018-06-16T03:25:32.756Z,18.61
2018-06-16T03:28:02.195Z,18.64
2018-06-16T03:30:31.693Z,18.67
2018-06-16T03:33:01.204Z,18.68
2018-06-16T03:35:30.648Z,18.73
2018-06-16T03:38:00.054Z,18.72
2018-06-16T03:40:29.647Z,18.82
2018-06-16T03:42:59.150Z,18.69
2018-06-16T03:45:28.609Z,18.78
2018-06-16T03:47:58.017Z,18.89
2018-06-16T03:50:27.541Z,18.88
2018-06-16T03:52:57.029Z,18.90
2018-06-16T03:55:26.456Z,18.90
2018-06-16T03:57:55.972Z,18.97
2018-06-16T04:00:25.535Z,19.05
2018-06-16T04:02:54.970Z,19.13
2018-06-16T04:05:24.414Z,19.12
2018-06-16T04:07:53.957Z,19.14
2018-06-16T04:10:23.583Z,19.26
2018-06-16T04:12:53.054Z,19.22
2018-06-16T04:15:22.477Z,19.25
2018-06-16T04:17:51.999Z,19.28
2018-06-16T04:20:21.439Z,19.36
2018-06-16T04:22:50.874Z,19.48
2018-06-16T04:25:20.422Z,19.34
2018-06-16T04:27:49.894Z,19.67
2018-06-16T04:30:19.330Z,19.56
2018-06-16T04:32:48.775Z,19.48
2018-06-16T04:35:18.313Z,19.56
2018-06-16T04:37:47.884Z,19.47
2018-06-16T04:40:17.306Z,19.52
2018-06-16T04:42:46.729Z,19.48
2018-06-16T04:45:16.249Z,19.50
2018-06-16T04:47:45.746Z,19.59
2018-06-16T04:50:15.197Z,19.58
2018-06-16T04:52:44.696Z,19.69
2018-06-16T04:55:14.234Z,19.63
2018-06-16T04:57:43.712Z,19.76
2018-06-16T05:00:13.152Z,19.78
2018-06-16T05:02:42.705Z,19.92
2018-06-16T05:05:12.290Z,19.93
2018-06-16T05:07:41.888Z,19.90
2018-06-16T05:10:11.300Z,20.15
2018-06-16T05:12:40.758Z,19.95
2018-06-16T05:15:10.178Z,19.77
2018-06-16T05:17:39.613Z,19.78
2018-06-16T05:20:09.252Z,19.88
2018-06-16T05:22:38.681Z,20.03
2018-06-16T05:25:08.696Z,20.12
2018-06-16T05:27:38.090Z,20.14
2018-06-16T05:30:07.695Z,20.20
2018-06-16T05:32:37.156Z,20.08
2018-06-16T05:35:06.634Z,20.09
2018-06-16T05:37:36.089Z,19.96
2018-06-16T05:40:05.640Z,20.26
2018-06-16T05:42:35.242Z,20.30
2018-06-16T05:45:04.832Z,20.25
2018-06-16T05:47:34.272Z,20.27
2018-06-16T05:50:17.230Z,20.31
2018-06-16T05:53:08.552Z,20.33
2018-06-16T05:59:07.549Z,20.46
2018-06-16T06:01:47.637Z,20.69
2018-06-16T06:04:29.515Z,20.97
2018-06-16T06:07:15.286Z,21.01
2018-06-16T06:10:14.010Z,21.30
2018-06-16T06:13:03.263Z,21.45
2018-06-16T06:15:50.113Z,20.89
2018-06-16T06:18:49.004Z,20.83
2018-06-16T06:24:27.895Z,21.29
2018-06-16T06:26:57.520Z,21.07
2018-06-16T06:29:27.027Z,21.41
2018-06-16T06:31:56.618Z,21.38
2018-06-16T06:34:26.634Z,21.76
2018-06-16T06:36:56.162Z,21.83
2018-06-16T06:39:26.853Z,22.10
2018-06-16T06:41:56.430Z,22.21
2018-06-16T06:44:26.057Z,22.59
2018-06-16T06:46:55.517Z,22.40
2018-06-16T06:49:25.320Z,22.15
2018-06-16T06:51:57.319Z,22.54
2018-06-16T06:54:26.929Z,22.80
2018-06-16T06:56:56.484Z,23.09
2018-06-16T06:59:26.143Z,22.26
2018-06-16T07:01:55.727Z,23.07
2018-06-16T07:04:25.298Z,23.02
2018-06-16T07:06:54.778Z,22.88
2018-06-16T07:09:25.351Z,23.04
2018-06-16T07:11:55.013Z,23.03
2018-06-16T07:14:24.572Z,23.00
2018-06-16T07:16:54.120Z,23.38
2018-06-16T07:19:23.579Z,23.33
2018-06-16T07:21:53.939Z,23.21
2018-06-16T07:24:29.837Z,23.62
2018-06-16T07:26:59.390Z,23.44
2018-06-16T07:29:29.013Z,23.49
2018-06-16T07:31:58.553Z,23.73
2018-06-16T07:34:28.126Z,23.51
2018-06-16T07:36:57.566Z,23.44
2018-06-16T07:39:27.175Z,23.90
2018-06-16T07:41:56.762Z,23.65
2018-06-16T07:44:26.198Z,23.41
2018-06-16T07:46:55.655Z,23.92
2018-06-16T07:49:25.233Z,24.17
2018-06-16T07:51:54.737Z,24.27
2018-06-16T07:54:24.204Z,24.62
2018-06-16T07:56:53.802Z,24.58
2018-06-16T07:59:23.304Z,24.18
2018-06-16T08:01:52.724Z,24.22
2018-06-16T08:04:22.249Z,24.50
2018-06-16T08:06:51.842Z,24.07
2018-06-16T08:09:21.455Z,24.44
2018-06-16T08:11:50.942Z,24.73
2018-06-16T08:14:20.453Z,24.05
2018-06-16T08:16:50.053Z,24.45
2018-06-16T08:19:19.542Z,24.72
2018-06-16T08:21:49.002Z,24.59
2018-06-16T08:24:18.447Z,24.93
2018-06-16T08:26:48.107Z,25.03
2018-06-16T08:29:17.767Z,25.26
2018-06-16T08:31:47.234Z,25.57
2018-06-16T08:34:16.669Z,25.56
2018-06-16T08:36:46.317Z,25.44
2018-06-16T08:39:15.777Z,25.37
2018-06-16T08:41:45.196Z,25.64
2018-06-16T08:44:14.787Z,25.35
2018-06-16T08:46:44.293Z,25.32
2018-06-16T08:49:13.800Z,26.06
2018-06-16T08:51:43.245Z,26.60
2018-06-16T08:54:12.733Z,27.46
2018-06-16T08:56:42.232Z,27.08
2018-06-16T08:59:11.755Z,27.23
2018-06-16T09:01:41.175Z,27.54
2018-06-16T09:04:10.754Z,27.63
2018-06-16T09:06:40.343Z,27.82
2018-06-16T09:09:10.336Z,27.68
2018-06-16T09:11:39.996Z,27.39
2018-06-16T09:14:09.545Z,27.41
2018-06-16T09:16:39.176Z,27.72
2018-06-16T09:19:08.659Z,27.50
2018-06-16T09:21:38.362Z,27.19
2018-06-16T09:24:07.953Z,27.09
2018-06-16T09:26:37.796Z,27.50
2018-06-16T09:29:07.294Z,27.82
2018-06-16T09:31:36.744Z,26.83
2018-06-16T09:34:06.377Z,26.52
2018-06-16T09:36:35.968Z,26.91
2018-06-16T09:39:09.539Z,27.35
2018-06-16T09:41:39.093Z,27.75
2018-06-16T09:44:08.965Z,28.20
2018-06-16T09:46:38.444Z,27.94
2018-06-16T09:49:07.958Z,28.03
2018-06-16T09:51:37.410Z,28.13
2018-06-16T09:54:06.895Z,28.49
2018-06-16T09:56:36.434Z,28.65
2018-06-16T09:59:06.148Z,28.45
2018-06-16T10:01:35.805Z,28.11
2018-06-16T10:04:05.303Z,27.97
2018-06-16T10:06:34.902Z,26.77
2018-06-16T10:09:06.065Z,27.39
2018-06-16T10:11:35.548Z,27.87
2018-06-16T10:14:05.012Z,28.49
2018-06-16T10:16:34.800Z,28.76
2018-06-16T10:19:04.080Z,29.35
2018-06-16T10:21:33.650Z,29.26
2018-06-16T10:24:03.098Z,29.12
2018-06-16T10:26:32.582Z,29.00
2018-06-16T10:29:02.365Z,28.82
2018-06-16T10:31:32.163Z,29.07
2018-06-16T10:34:01.565Z,29.77
2018-06-16T10:36:31.328Z,29.71
2018-06-16T10:39:00.939Z,28.86
2018-06-16T10:41:30.539Z,28.78
2018-06-16T10:43:59.971Z,28.49
2018-06-16T10:46:29.170Z,28.42
2018-06-16T10:48:58.633Z,28.22
2018-06-16T10:51:28.207Z,28.63
2018-06-16T10:53:57.681Z,28.60
2018-06-16T10:56:27.329Z,28.17
2018-06-16T10:58:56.934Z,27.77
2018-06-16T11:01:26.355Z,28.27
2018-06-16T11:03:55.830Z,28.51
2018-06-16T11:06:25.355Z,28.37
2018-06-16T11:08:54.859Z,28.18
2018-06-16T11:11:24.300Z,28.48
2018-06-16T11:13:53.804Z,28.46
2018-06-16T11:16:24.366Z,28.37
2018-06-16T11:18:54.246Z,27.67
2018-06-16T11:21:23.723Z,27.54
2018-06-16T11:23:53.152Z,27.91
2018-06-16T11:26:22.771Z,27.74
2018-06-16T11:28:52.546Z,27.30
2018-06-16T11:31:21.980Z,26.89
2018-06-16T11:33:51.880Z,26.46
2018-06-16T11:36:21.463Z,26.38
2018-06-16T11:38:50.953Z,25.81
2018-06-16T11:41:20.526Z,26.22
2018-06-16T11:43:50.047Z,26.46
2018-06-16T11:46:19.361Z,26.78
2018-06-16T11:48:48.983Z,26.83
2018-06-16T11:51:18.389Z,27.68
2018-06-16T11:53:47.866Z,28.37
2018-06-16T11:56:17.442Z,28.91
2018-06-16T11:58:46.982Z,28.83
2018-06-16T12:01:16.446Z,28.36
2018-06-16T12:03:46.007Z,27.98
2018-06-16T12:06:15.602Z,28.24
2018-06-16T12:08:44.759Z,28.03
2018-06-16T12:11:14.302Z,27.92
2018-06-16T12:13:43.678Z,28.13
2018-06-16T12:16:13.207Z,28.02
2018-06-16T12:18:42.718Z,27.89
2018-06-16T12:21:12.263Z,27.61
2018-06-16T12:23:41.841Z,27.96
2018-06-16T12:26:11.016Z,28.21
2018-06-16T12:28:40.431Z,28.86
2018-06-16T12:31:09.946Z,30.90
2018-06-16T12:33:39.449Z,32.57
2018-06-16T12:36:08.886Z,33.43
2018-06-16T12:38:38.398Z,33.62
2018-06-16T12:41:08.068Z,34.56
2018-06-16T12:43:37.600Z,34.12
2018-06-16T12:46:07.055Z,33.63
2018-06-16T12:48:36.558Z,33.01
2018-06-16T12:51:06.187Z,34.41
2018-06-16T12:53:35.618Z,35.76
2018-06-16T12:56:05.049Z,36.61
2018-06-16T12:58:35.104Z,38.59
2018-06-16T13:01:04.772Z,39.07
2018-06-16T13:03:34.278Z,39.95
2018-06-16T13:06:03.743Z,39.63
2018-06-16T13:08:33.306Z,38.51
2018-06-16T13:11:02.929Z,36.54
2018-06-16T13:13:32.367Z,35.78
2018-06-16T13:16:01.879Z,35.62
2018-06-16T13:18:31.459Z,35.43
2018-06-16T13:21:00.981Z,36.45
2018-06-16T13:23:30.417Z,36.94
2018-06-16T13:25:59.956Z,37.03
2018-06-16T13:28:29.500Z,38.97
2018-06-16T13:30:58.905Z,40.79
2018-06-16T13:33:28.346Z,41.88
2018-06-16T13:35:57.953Z,43.24
2018-06-16T13:38:27.616Z,43.94
2018-06-16T13:40:57.108Z,42.75
2018-06-16T13:43:26.646Z,42.80
2018-06-16T13:45:56.336Z,44.05
2018-06-16T13:48:25.862Z,42.58
2018-06-16T13:50:55.386Z,40.97
2018-06-16T13:53:24.507Z,38.89
2018-06-16T13:55:55.003Z,37.30
2018-06-16T13:58:24.564Z,36.74
2018-06-16T14:00:53.992Z,35.16
2018-06-16T14:03:23.862Z,34.13
2018-06-16T14:05:53.185Z,33.46
2018-06-16T14:08:22.715Z,32.50
2018-06-16T14:10:52.178Z,31.60
2018-06-16T14:13:21.663Z,31.42
2018-06-16T14:15:51.184Z,31.93
2018-06-16T14:18:20.485Z,31.85
2018-06-16T14:20:49.926Z,32.20
2018-06-16T14:23:19.446Z,32.73
2018-06-16T14:25:49.184Z,32.87
2018-06-16T14:28:18.732Z,32.19
2018-06-16T14:30:48.196Z,31.64
2018-06-16T14:33:17.825Z,31.15
2018-06-16T14:35:47.803Z,30.82
2018-06-16T14:38:17.966Z,30.04
2018-06-16T14:40:47.464Z,30.47
2018-06-16T14:43:17.155Z,30.30
2018-06-16T14:45:46.810Z,30.30
2018-06-16T14:48:16.240Z,29.90
2018-06-16T14:50:45.690Z,30.29
2018-06-16T14:53:15.317Z,29.99
2018-06-16T14:55:44.825Z,30.01
2018-06-16T14:58:14.265Z,30.10
2018-06-16T15:00:43.773Z,30.02
2018-06-16T15:03:13.382Z,30.02
2018-06-16T15:05:43.084Z,30.44
2018-06-16T15:08:12.536Z,29.94
2018-06-16T15:13:39.379Z,29.90
2018-06-16T15:16:08.910Z,29.41
2018-06-16T15:21:06.928Z,29.36
2018-06-16T15:23:36.366Z,29.28
2018-06-16T15:26:06.031Z,29.04
2018-06-16T15:28:35.512Z,28.88
2018-06-16T15:31:04.933Z,28.73
2018-06-16T15:33:34.421Z,28.42
2018-06-16T15:36:04.109Z,28.36
2018-06-16T15:38:33.561Z,28.45
2018-06-16T15:41:02.954Z,28.37
2018-06-16T15:43:32.410Z,28.07
2018-06-16T15:46:01.985Z,28.04
2018-06-16T15:48:31.580Z,27.79
2018-06-16T15:51:01.020Z,27.61
2018-06-16T15:53:30.640Z,27.25
2018-06-16T15:56:00.222Z,27.25
2018-06-16T15:58:29.754Z,27.21
2018-06-16T16:00:58.915Z,27.04
2018-06-16T16:03:28.403Z,27.13
2018-06-16T16:05:57.916Z,26.89
2018-06-16T16:08:27.351Z,25.88
2018-06-16T16:10:56.792Z,25.31
2018-06-16T16:13:28.942Z,24.76
2018-06-16T16:15:58.415Z,24.19
2018-06-16T16:18:27.870Z,23.46
2018-06-16T16:20:57.318Z,22.65
2018-06-16T16:23:26.967Z,22.25
2018-06-16T16:25:56.464Z,22.17
2018-06-16T16:28:25.945Z,22.07
2018-06-16T16:30:55.459Z,21.82
2018-06-16T16:33:25.031Z,21.93
2018-06-16T16:35:55.431Z,22.12
2018-06-16T16:38:27.718Z,22.23
2018-06-16T16:40:59.155Z,22.36
2018-06-16T16:43:29.894Z,22.39
2018-06-16T16:45:59.471Z,22.65
2018-06-16T16:48:32.774Z,22.65
2018-06-16T16:51:02.605Z,22.60
2018-06-16T16:53:37.483Z,22.47
2018-06-16T16:56:10.954Z,22.58
2018-06-16T16:58:40.579Z,22.61
2018-06-16T17:01:10.279Z,22.72
2018-06-16T17:03:39.700Z,22.52
2018-06-16T17:06:16.602Z,22.59
2018-06-16T17:08:48.051Z,22.62
2018-06-16T17:11:18.439Z,22.73
2018-06-16T17:13:48.858Z,22.84
2018-06-16T17:16:19.555Z,23.02
2018-06-16T17:18:50.507Z,23.07
2018-06-16T17:21:22.009Z,23.15
2018-06-16T17:23:52.631Z,23.23
2018-06-16T17:27:00.674Z,23.22
2018-06-16T17:29:35.659Z,23.37
2018-06-16T17:32:07.585Z,23.37
2018-06-16T17:34:38.669Z,23.41
2018-06-16T17:37:09.847Z,23.51
2018-06-16T17:39:41.774Z,23.56
2018-06-16T17:42:13.032Z,23.57
2018-06-16T17:44:44.104Z,23.70
2018-06-16T17:47:14.015Z,23.81
2018-06-16T17:49:45.848Z,23.97
2018-06-16T17:52:16.920Z,23.98
2018-06-16T17:54:47.449Z,23.98
2018-06-16T17:57:18.262Z,23.90
2018-06-16T17:59:48.874Z,23.87
2018-06-16T18:02:19.945Z,23.84
2018-06-16T18:04:51.251Z,23.87
2018-06-16T18:07:22.188Z,23.77
2018-06-16T18:09:52.255Z,23.78
2018-06-16T18:12:24.979Z,23.82
2018-06-16T18:15:06.813Z,23.81
2018-06-16T18:17:36.648Z,23.86
2018-06-16T18:20:06.614Z,23.69
2018-06-16T18:22:36.431Z,23.83
2018-06-16T18:25:06.038Z,23.88
2018-06-16T18:27:35.533Z,23.95
2018-06-16T18:30:05.127Z,23.94
2018-06-16T18:32:35.381Z,23.76
2018-06-16T18:35:04.904Z,23.71
2018-06-16T18:37:34.563Z,23.64
2018-06-16T18:40:06.207Z,23.42
2018-06-16T18:42:35.859Z,23.26
2018-06-16T18:45:05.591Z,23.09
2018-06-16T18:47:35.050Z,23.06
2018-06-16T18:50:05.053Z,22.85
2018-06-16T18:52:34.613Z,22.71
2018-06-16T18:55:04.204Z,22.66
2018-06-16T18:57:33.683Z,22.53
2018-06-16T19:00:08.109Z,22.53
2018-06-16T19:02:37.531Z,22.28
2018-06-16T19:05:08.904Z,22.03
2018-06-16T19:07:38.456Z,22.19
2018-06-16T19:10:09.208Z,22.12
2018-06-16T19:12:38.797Z,22.16
2018-06-16T19:15:08.353Z,22.17
2018-06-16T19:17:37.817Z,22.06
2018-06-16T19:20:07.362Z,22.22
2018-06-16T19:22:36.963Z,22.14
2018-06-16T19:25:06.473Z,22.05
2018-06-16T19:27:36.003Z,22.08
2018-06-16T19:30:05.723Z,21.84
2018-06-16T19:32:35.486Z,21.78
2018-06-16T19:35:05.691Z,21.80
2018-06-16T19:37:35.976Z,21.85
2018-06-16T19:40:05.433Z,21.66
2018-06-16T19:42:35.353Z,21.70
2018-06-16T19:45:05.956Z,21.89
2018-06-16T19:47:36.062Z,21.73
2018-06-16T19:50:05.826Z,21.62
2018-06-16T19:52:35.615Z,21.60
2018-06-16T19:55:05.749Z,21.48
2018-06-16T19:57:35.369Z,21.36
2018-06-16T20:00:05.519Z,21.25
2018-06-16T20:02:36.419Z,21.33
2018-06-16T20:05:06.170Z,21.30
2018-06-16T20:07:35.670Z,21.38
2018-06-16T20:10:06.128Z,21.34
2018-06-16T20:12:36.180Z,21.38
2018-06-16T20:15:07.388Z,21.33
2018-06-16T20:17:37.637Z,21.33
2018-06-16T20:20:09.717Z,21.44
2018-06-16T20:22:39.383Z,21.50
2018-06-16T20:25:09.322Z,21.44
2018-06-16T20:27:39.866Z,21.44
2018-06-16T20:30:09.777Z,21.39
2018-06-16T20:32:40.050Z,21.21
2018-06-16T20:35:09.604Z,21.10
2018-06-16T20:37:39.822Z,20.95
2018-06-16T20:40:20.681Z,20.82
2018-06-16T20:42:52.826Z,20.74
2018-06-16T20:45:22.791Z,20.64
2018-06-16T20:47:52.345Z,20.82
2018-06-16T20:50:22.745Z,20.88
2018-06-16T20:52:52.577Z,20.96
2018-06-16T20:55:22.035Z,21.06
2018-06-16T20:57:51.685Z,21.06
2018-06-16T21:00:21.308Z,21.15
2018-06-16T21:02:50.769Z,21.14
2018-06-16T21:05:20.397Z,21.06
2018-06-16T21:07:49.871Z,21.18
2018-06-16T21:10:19.456Z,21.11
2018-06-16T21:12:49.811Z,20.95
2018-06-16T21:15:27.146Z,20.90
2018-06-16T21:17:58.023Z,20.88
2018-06-16T21:20:28.034Z,20.76
2018-06-16T21:22:58.088Z,20.68
2018-06-16T21:25:28.680Z,20.46
2018-06-16T21:27:58.218Z,20.34
2018-06-16T21:30:27.740Z,20.23
2018-06-16T21:32:57.286Z,20.11
2018-06-16T21:35:26.756Z,20.09
2018-06-16T21:37:56.458Z,20.02
2018-06-16T21:40:26.246Z,19.90
2018-06-16T21:42:55.878Z,19.92
2018-06-16T21:45:25.564Z,19.69
2018-06-16T21:47:55.660Z,19.60
2018-06-16T21:50:26.070Z,19.69
2018-06-16T21:53:05.534Z,19.55
2018-06-16T21:55:35.656Z,19.52
2018-06-16T21:58:06.203Z,19.49
2018-06-16T22:00:36.981Z,19.46
2018-06-16T22:03:07.635Z,19.47
2018-06-16T22:05:38.439Z,19.62
2018-06-16T22:08:13.350Z,19.68
2018-06-16T22:10:43.716Z,19.59
2018-06-16T22:13:15.438Z,19.65
2018-06-16T22:15:45.656Z,19.75
2018-06-16T22:18:15.644Z,19.84
2018-06-16T22:20:45.430Z,19.58
2018-06-16T22:23:16.178Z,19.56
2018-06-16T22:25:46.038Z,19.50
2018-06-16T22:28:16.122Z,19.21
2018-06-16T22:30:45.598Z,19.24
2018-06-16T22:33:15.043Z,19.07
2018-06-16T22:35:44.623Z,19.01
2018-06-16T22:38:14.343Z,19.06
2018-06-16T22:40:44.865Z,19.04
2018-06-16T22:43:14.312Z,18.97
2018-06-16T22:45:43.749Z,18.98
2018-06-16T22:48:13.436Z,18.83
2018-06-16T22:50:42.983Z,18.71
2018-06-16T22:53:12.466Z,18.78
2018-06-16T22:55:42.235Z,18.80
2018-06-16T22:58:11.879Z,18.68
2018-06-16T23:00:41.566Z,18.67
2018-06-16T23:03:11.037Z,18.53
2018-06-16T23:05:40.627Z,18.48
2018-06-16T23:08:11.680Z,18.51
2018-06-16T23:10:41.415Z,18.59
2018-06-16T23:13:11.694Z,18.53
2018-06-16T23:15:41.170Z,18.48
2018-06-16T23:18:11.283Z,18.69
2018-06-16T23:20:40.879Z,18.93
2018-06-16T23:23:10.788Z,18.84
2018-06-16T23:25:40.247Z,18.91
2018-06-16T23:28:10.337Z,18.90
2018-06-16T23:30:40.710Z,18.81
2018-06-16T23:33:11.313Z,18.96
2018-06-16T23:35:40.811Z,18.78
2018-06-16T23:38:10.252Z,18.90
2018-06-16T23:40:40.039Z,18.89
2018-06-16T23:43:09.697Z,19.05
2018-06-16T23:45:39.276Z,18.96
2018-06-16T23:48:08.730Z,18.87
2018-06-16T23:50:38.211Z,18.91
2018-06-16T23:53:07.813Z,18.79
2018-06-16T23:55:37.357Z,18.93
2018-06-16T23:58:06.799Z,18.89
